»·PEaware :: UAL1972 KSFO-KLAX

UAL1972 :: KSFO-KLAX

FLIGHT INFORMATION

Flight Status: Arrived
Operator:
United Airlines
More flights by this operator :: More flights under this callsign
Pilot: Kyle M. (9350)
Aircraft: Unknown
(B77L)
More flights by this aircraft type
Origin: KSFO San Francisco Intl
United States
Destination: KLAX Los Angeles Intl
United States
More flights between these airports :: More routes between these airports
Route: SSTIK4 EBAYE BURGL IRNMN2
File this flight plan on PilotEdge
Remarks: CptCanada - Youtube Livestreams!
Altitude:
(Current/Filed)
37,000ft
Speed:
(Current/Filed)
450kts
Departed: 02-Dec-18 11:38 AM
Arrived: 02-Dec-18 12:35 PM
Distance/Time
Traveled:
293nm/0:57
Distance/Time
To Go:
Arrived

Flight Plot

Page will automatically refresh every two minutes.

Flight plan parsing failed; only flown route is shown


Map Options




Map Legend


Flown Route
Filed Route
Departure Airport
Arrival Airport
Navaid (VOR, NDB)
Fix

Horizontal Profiles

Position Reports

Time Latitude Longitude Heading Altitude Ground
Speed
02-Dec-18 11:00 37.619815 -122.383952 213 30ft 0kts
02-Dec-18 11:01 37.619815 -122.383952 213 30ft 0kts
02-Dec-18 11:02 37.619815 -122.383952 213 30ft 0kts
02-Dec-18 11:03 37.619815 -122.383952 213 30ft 0kts
02-Dec-18 11:04 37.619815 -122.383952 213 30ft 0kts
02-Dec-18 11:05 37.619815 -122.383952 213 30ft 0kts
02-Dec-18 11:06 37.619815 -122.383952 213 30ft 0kts
02-Dec-18 11:07 37.619815 -122.383952 213 30ft 0kts
02-Dec-18 11:08 37.619815 -122.383952 213 30ft 0kts
02-Dec-18 11:09 37.619815 -122.383952 213 30ft 0kts
02-Dec-18 11:10 37.619815 -122.383952 213 30ft 0kts
02-Dec-18 11:11 37.619815 -122.383952 213 30ft 0kts
02-Dec-18 11:12 37.619815 -122.383952 213 30ft 0kts
02-Dec-18 11:13 37.619815 -122.383952 213 30ft 0kts
02-Dec-18 11:14 37.619815 -122.383952 213 30ft 0kts
02-Dec-18 11:15 37.619815 -122.383952 213 30ft 0kts
02-Dec-18 11:16 37.619815 -122.383952 213 30ft 0kts
02-Dec-18 11:17 37.619815 -122.383952 213 30ft 0kts
02-Dec-18 11:18 37.619815 -122.383952 213 30ft 0kts
02-Dec-18 11:19 37.619815 -122.383952 213 30ft 0kts
02-Dec-18 11:20 37.619815 -122.383952 213 30ft 0kts
02-Dec-18 11:21 37.619815 -122.383952 213 30ft 0kts
02-Dec-18 11:22 37.619815 -122.383952 213 30ft 0kts
02-Dec-18 11:23 37.619815 -122.383952 213 30ft 0kts
02-Dec-18 11:24 37.619815 -122.383952 213 30ft 0kts
02-Dec-18 11:25 37.619815 -122.383952 213 30ft 0kts
02-Dec-18 11:26 37.619815 -122.383952 213 30ft 0kts
02-Dec-18 11:27 37.619815 -122.383952 213 30ft 0kts
02-Dec-18 11:28 37.619816 -122.383952 213 30ft 0kts
02-Dec-18 11:29 37.619816 -122.383952 213 30ft 0kts
02-Dec-18 11:30 37.620255 -122.383664 182 30ft 2kts
02-Dec-18 11:31 37.620420 -122.383726 118 30ft 0kts
02-Dec-18 11:32 37.620420 -122.383726 118 30ft 0kts
02-Dec-18 11:33 37.620420 -122.383726 118 30ft 0kts
02-Dec-18 11:34 37.620420 -122.383726 118 30ft 0kts
02-Dec-18 11:35 37.620420 -122.383726 118 30ft 0kts
02-Dec-18 11:36 37.620011 -122.382857 120 30ft 11kts
02-Dec-18 11:37 37.617748 -122.379485 170 29ft 12kts
02-Dec-18 11:38 37.614336 -122.381148 208 30ft 14kts
02-Dec-18 11:39 37.610594 -122.383638 209 30ft 15kts
02-Dec-18 11:40 37.610105 -122.381459 28 30ft 19kts
02-Dec-18 11:41 37.634106 -122.366215 22 457ft 147kts
02-Dec-18 11:42 37.679644 -122.361821 357 2210ft 183kts
02-Dec-18 11:43 37.691525 -122.421690 222 4325ft 251kts
02-Dec-18 11:44 37.621136 -122.432094 188 7437ft 277kts
02-Dec-18 11:45 37.543945 -122.455242 195 9977ft 300kts
02-Dec-18 11:46 37.461620 -122.444647 139 10595ft 347kts
02-Dec-18 11:47 37.398941 -122.351659 131 12685ft 357kts
02-Dec-18 11:48 37.330291 -122.257603 133 14694ft 372kts
02-Dec-18 11:49 37.259649 -122.161973 135 16920ft 377kts
02-Dec-18 11:50 37.188276 -122.065778 136 18768ft 387kts
02-Dec-18 11:51 37.115097 -121.967400 136 20665ft 393kts
02-Dec-18 11:52 37.039494 -121.866019 136 22273ft 404kts
02-Dec-18 11:53 36.961831 -121.762210 136 23778ft 416kts
02-Dec-18 11:54 36.881683 -121.655427 136 25437ft 428kts
02-Dec-18 11:55 36.799635 -121.546480 136 27129ft 440kts
02-Dec-18 11:56 36.714537 -121.433867 136 28788ft 453kts
02-Dec-18 11:57 36.627138 -121.318607 136 30415ft 466kts
02-Dec-18 11:58 36.536343 -121.199354 136 31981ft 481kts
02-Dec-18 11:59 36.442459 -121.076447 136 33527ft 502kts
02-Dec-18 12:00 36.350498 -120.945391 133 35979ft 504kts
02-Dec-18 12:01 36.259677 -120.815224 133 37213ft 501kts
02-Dec-18 12:02 36.168348 -120.684834 133 37187ft 502kts
02-Dec-18 12:03 36.077072 -120.555014 133 37212ft 502kts
02-Dec-18 12:04 35.985652 -120.425489 133 37207ft 501kts
02-Dec-18 12:05 35.894995 -120.297573 135 37208ft 499kts
02-Dec-18 12:06 35.784547 -120.197114 152 37189ft 509kts
02-Dec-18 12:07 35.665276 -120.107187 152 37181ft 502kts
02-Dec-18 12:08 35.548299 -120.018906 152 37156ft 494kts
02-Dec-18 12:09 35.431937 -119.931380 152 37160ft 481kts
02-Dec-18 12:10 35.325312 -119.851420 153 37020ft 424kts
02-Dec-18 12:11 35.227225 -119.766555 146 36591ft 461kts
02-Dec-18 12:12 35.140868 -119.685972 145 34085ft 473kts
02-Dec-18 12:13 35.019906 -119.573321 146 31157ft 465kts
02-Dec-18 12:14 34.935807 -119.495324 146 29353ft 452kts
02-Dec-18 12:15 34.821309 -119.392182 146 26991ft 458kts
02-Dec-18 12:16 34.740757 -119.320378 147 25162ft 456kts
02-Dec-18 12:17 34.640517 -119.232881 148 23188ft 436kts
02-Dec-18 12:18 34.527986 -119.134989 147 20876ft 421kts
02-Dec-18 12:19 34.450165 -119.066174 147 19276ft 410kts
02-Dec-18 12:20 34.359149 -118.987215 147 17255ft 398kts
02-Dec-18 12:21 34.269691 -118.906804 145 15460ft 404kts
02-Dec-18 12:22 34.182250 -118.826635 143 13629ft 392kts
02-Dec-18 12:23 34.103277 -118.743666 137 11813ft 333kts
02-Dec-18 12:24 34.040876 -118.674944 129 10484ft 296kts
02-Dec-18 12:25 34.022367 -118.582753 95 9120ft 284kts
02-Dec-18 12:26 34.013244 -118.489306 94 7821ft 279kts
02-Dec-18 12:27 33.983034 -118.406211 121 6757ft 279kts
02-Dec-18 12:28 33.945204 -118.328610 121 5974ft 274kts
02-Dec-18 12:29 33.907577 -118.249800 121 4990ft 267kts
02-Dec-18 12:30 33.905947 -118.169950 81 4972ft 236kts
02-Dec-18 12:31 33.927559 -118.104148 2 4015ft 210kts
02-Dec-18 12:32 33.946924 -118.155330 272 3974ft 189kts
02-Dec-18 12:33 33.946707 -118.214191 275 4048ft 161kts
02-Dec-18 12:34 33.948540 -118.263969 266 2575ft 144kts
02-Dec-18 12:35 33.944484 -118.308862 264 1337ft 124kts
02-Dec-18 12:36 33.940581 -118.350290 263 760ft 125kts
02-Dec-18 12:37 33.936519 -118.390963 263 122ft 107kts
02-Dec-18 12:38 33.936617 -118.399922 279 120ft 8kts
02-Dec-18 12:39 33.936685 -118.403726 296 120ft 13kts
02-Dec-18 12:40 33.938626 -118.401488 83 120ft 14kts
02-Dec-18 12:41 33.940079 -118.401285 309 120ft 0kts
02-Dec-18 12:42 33.940079 -118.401284 309 120ft 0kts

Navigation Log

Ident Type
Flight plan parsing failed, navigation log unavailable